Time;durP1;ratioP1;P1;durP2;ratioP2;P2;SDS_P1;SDS_P2;PMS_P1;PMS_P2;Temp;Humidity;BMP_temperature;BMP_pressure;BME280_temperature;BME280_humidity;BME280_pressure;Samples;Min_cycle;Max_cycle;Signal;HPM_P1;HPM_P2
2023/09/11 00:00:41;;;;;;;12.13;5.70;;;17.40;99.90;;;;;;5109315;28;20309;-61
2023/09/11 00:03:06;;;;;;;6.00;4.00;;;17.40;99.90;;;;;;5099309;28;20203;-61
2023/09/11 00:05:32;;;;;;;7.73;4.27;;;17.40;99.90;;;;;;5097133;28;20468;-60
2023/09/11 00:07:58;;;;;;;4.93;3.53;;;17.40;99.90;;;;;;5099566;28;20190;-60
2023/09/11 00:10:24;;;;;;;7.73;4.37;;;17.40;99.90;;;;;;5097747;28;20255;-60
2023/09/11 00:12:49;;;;;;;16.67;4.43;;;17.30;99.90;;;;;;5102248;28;20184;-61
2023/09/11 00:15:15;;;;;;;19.80;4.90;;;17.30;99.90;;;;;;5090577;28;20180;-61
2023/09/11 00:17:41;;;;;;;7.63;4.70;;;17.30;99.90;;;;;;5098838;28;20214;-60
2023/09/11 00:20:10;;;;;;;12.63;5.57;;;17.30;99.90;;;;;;5087693;28;20209;-60
2023/09/11 00:22:38;;;;;;;9.07;4.53;;;17.30;99.90;;;;;;5092485;28;20187;-61
2023/09/11 00:25:06;;;;;;;7.30;4.13;;;17.20;99.90;;;;;;5110194;28;20418;-60
2023/09/11 00:27:31;;;;;;;10.47;5.10;;;17.20;99.90;;;;;;5082975;28;20508;-61
2023/09/11 00:29:57;;;;;;;9.63;4.30;;;17.10;99.90;;;;;;5092492;28;20878;-60
2023/09/11 00:32:23;;;;;;;7.77;4.57;;;17.20;99.90;;;;;;5101725;28;20180;-61
2023/09/11 00:34:49;;;;;;;6.87;4.10;;;17.10;99.90;;;;;;5092478;28;20197;-61
2023/09/11 00:37:14;;;;;;;7.90;4.70;;;17.10;99.90;;;;;;5092539;27;20173;-60
2023/09/11 00:39:40;;;;;;;9.53;5.73;;;17.00;99.90;;;;;;5096244;28;20526;-60
2023/09/11 00:42:05;;;;;;;11.97;4.90;;;17.10;99.90;;;;;;5093347;28;20368;-60
2023/09/11 00:44:31;;;;;;;11.20;4.87;;;17.00;99.90;;;;;;5092456;28;20215;-61
2023/09/11 00:46:58;;;;;;;10.90;5.57;;;17.00;99.90;;;;;;5097271;28;20184;-60
2023/09/11 00:49:24;;;;;;;8.70;4.50;;;17.00;99.90;;;;;;5105510;28;20631;-61
2023/09/11 00:51:50;;;;;;;12.70;6.10;;;17.00;99.90;;;;;;5099369;28;20442;-61
2023/09/11 00:54:18;;;;;;;9.40;5.70;;;17.00;99.90;;;;;;5104021;28;20172;-60
2023/09/11 00:56:45;;;;;;;10.50;5.30;;;16.90;99.90;;;;;;5098731;28;20461;-60
2023/09/11 00:59:12;;;;;;;10.00;4.90;;;16.80;99.90;;;;;;5109216;28;20426;-60
2023/09/11 01:01:43;;;;;;;13.20;5.07;;;16.80;99.90;;;;;;5088763;28;20474;-61
2023/09/11 01:04:10;;;;;;;6.07;4.00;;;16.80;99.90;;;;;;5097974;28;20473;-60
2023/09/11 01:06:36;;;;;;;11.80;5.03;;;16.80;99.90;;;;;;5096038;28;20413;-61
2023/09/11 01:09:02;;;;;;;6.67;3.67;;;16.80;99.90;;;;;;5101776;28;20504;-60
2023/09/11 01:11:28;;;;;;;6.50;3.93;;;16.80;99.90;;;;;;5111109;28;20475;-61
2023/09/11 01:13:55;;;;;;;8.33;4.93;;;16.80;99.90;;;;;;5092388;28;20474;-61
2023/09/11 01:16:32;;;;;;;9.80;4.77;;;16.80;99.90;;;;;;5104096;28;20176;-60
2023/09/11 01:19:06;;;;;;;6.87;4.30;;;16.80;99.90;;;;;;5084972;28;20438;-60
2023/09/11 01:22:00;;;;;;;10.30;4.73;;;16.70;99.90;;;;;;5087633;28;20422;-60
2023/09/11 01:24:50;;;;;;;7.70;4.67;;;16.70;99.90;;;;;;5100590;28;20457;-60
2023/09/11 01:27:15;;;;;;;7.03;4.80;;;16.60;99.90;;;;;;5081976;28;20487;-61
2023/09/11 01:29:42;;;;;;;6.73;3.63;;;16.60;99.90;;;;;;5092426;28;20498;-60
2023/09/11 01:32:10;;;;;;;10.47;4.23;;;16.50;99.90;;;;;;5112039;28;20654;-61
2023/09/11 01:34:36;;;;;;;7.63;5.00;;;16.60;99.90;;;;;;5096717;28;20439;-60
2023/09/11 01:37:01;;;;;;;6.20;3.80;;;16.50;99.90;;;;;;5097176;28;20421;-60
2023/09/11 01:39:27;;;;;;;8.20;4.50;;;16.50;99.90;;;;;;5099138;28;20176;-60
2023/09/11 01:41:58;;;;;;;6.70;3.70;;;16.50;99.90;;;;;;5103526;27;20206;-60
2023/09/11 01:44:41;;;;;;;7.70;4.33;;;16.50;99.90;;;;;;5104786;28;20291;-60
2023/09/11 01:47:09;;;;;;;10.83;4.20;;;16.50;99.90;;;;;;5093784;28;20410;-61
2023/09/11 01:49:37;;;;;;;10.53;5.10;;;16.40;99.90;;;;;;5108365;28;20414;-60
2023/09/11 01:52:05;;;;;;;7.17;4.33;;;16.40;99.90;;;;;;5104803;28;20425;-60
2023/09/11 01:54:33;;;;;;;9.47;5.30;;;16.40;99.90;;;;;;5096365;28;20422;-60
2023/09/11 01:56:58;;;;;;;10.77;4.60;;;16.30;99.90;;;;;;5095635;28;20929;-60
2023/09/11 01:59:24;;;;;;;5.60;4.00;;;16.30;99.90;;;;;;5114682;28;20470;-61
2023/09/11 02:01:50;;;;;;;8.50;4.60;;;16.30;99.90;;;;;;5113932;28;20195;-60
2023/09/11 02:04:15;;;;;;;7.80;4.67;;;16.20;99.90;;;;;;5111324;28;20250;-61
2023/09/11 02:06:41;;;;;;;12.77;5.80;;;16.20;99.90;;;;;;5104929;28;20210;-61
2023/09/11 02:09:07;;;;;;;10.00;5.77;;;16.30;99.90;;;;;;5114341;28;20182;-60
2023/09/11 02:11:32;;;;;;;11.47;5.87;;;16.30;99.90;;;;;;5114283;28;20175;-61
2023/09/11 02:13:58;;;;;;;9.13;4.53;;;16.30;99.90;;;;;;5110355;28;20268;-61
2023/09/11 02:16:23;;;;;;;6.90;4.50;;;16.20;99.90;;;;;;5103903;28;20206;-60
2023/09/11 02:18:49;;;;;;;9.83;5.17;;;16.20;99.90;;;;;;5106127;28;20185;-61
2023/09/11 02:21:14;;;;;;;9.27;4.90;;;16.20;99.90;;;;;;5092542;28;20207;-60
2023/09/11 02:23:41;;;;;;;13.87;5.93;;;16.20;99.90;;;;;;5110973;28;20599;-62
2023/09/11 02:26:07;;;;;;;7.27;4.20;;;16.20;99.90;;;;;;5098133;28;20168;-62
2023/09/11 02:28:33;;;;;;;9.67;4.87;;;16.20;99.90;;;;;;5083064;28;20414;-61
2023/09/11 02:30:58;;;;;;;7.70;4.23;;;16.20;99.90;;;;;;5092140;28;20203;-61
2023/09/11 02:33:24;;;;;;;9.37;5.43;;;16.20;99.90;;;;;;5106160;28;20630;-61
2023/09/11 02:35:57;;;;;;;14.90;5.23;;;16.20;99.90;;;;;;5091868;28;20188;-61
2023/09/11 02:38:23;;;;;;;6.80;4.37;;;16.20;99.90;;;;;;5094392;28;20176;-61
2023/09/11 02:40:48;;;;;;;10.83;5.53;;;16.20;99.90;;;;;;5095849;28;20498;-61
2023/09/11 02:43:14;;;;;;;15.50;5.20;;;16.20;99.90;;;;;;5094889;28;20227;-62
2023/09/11 02:45:44;;;;;;;7.80;4.60;;;16.10;99.90;;;;;;5087403;28;20276;-61
2023/09/11 02:48:10;;;;;;;8.20;4.90;;;16.10;99.90;;;;;;5099150;28;20654;-61
2023/09/11 02:50:37;;;;;;;14.70;4.97;;;16.20;99.90;;;;;;5103466;28;20449;-61
2023/09/11 02:53:06;;;;;;;12.27;5.47;;;16.20;99.90;;;;;;5097116;28;20418;-61
2023/09/11 02:55:31;;;;;;;11.43;5.40;;;16.20;99.90;;;;;;5104494;28;20453;-61
2023/09/11 02:57:57;;;;;;;9.37;5.10;;;16.20;99.90;;;;;;5113486;28;20881;-61
2023/09/11 03:00:22;;;;;;;10.60;5.30;;;16.20;99.90;;;;;;5100325;28;20176;-61
2023/09/11 03:02:48;;;;;;;10.77;5.83;;;16.20;99.90;;;;;;5112766;28;20293;-61
2023/09/11 03:05:13;;;;;;;12.50;5.33;;;16.20;99.90;;;;;;5099848;28;20181;-61
2023/09/11 03:07:39;;;;;;;8.17;4.80;;;16.20;99.90;;;;;;5112415;28;20184;-61
2023/09/11 03:10:06;;;;;;;7.80;4.60;;;16.10;99.90;;;;;;5100488;28;20188;-61
2023/09/11 03:12:32;;;;;;;9.73;5.40;;;16.10;99.90;;;;;;5112166;28;20184;-61
2023/09/11 03:15:03;;;;;;;12.47;5.70;;;16.10;99.90;;;;;;5099832;28;20525;-61
2023/09/11 03:17:30;;;;;;;11.97;4.90;;;16.10;99.90;;;;;;5085990;28;20175;-61
2023/09/11 03:19:57;;;;;;;7.17;4.70;;;16.10;99.90;;;;;;5091218;28;20413;-61
2023/09/11 03:22:23;;;;;;;11.10;4.77;;;16.00;99.90;;;;;;5101697;28;20453;-60
2023/09/11 03:24:48;;;;;;;9.07;5.23;;;16.00;99.90;;;;;;5096939;28;20469;-61
2023/09/11 03:27:14;;;;;;;10.20;4.67;;;16.00;99.90;;;;;;5086751;28;20495;-61
2023/09/11 03:29:40;;;;;;;9.10;5.20;;;15.90;99.90;;;;;;5093753;28;20222;-61
2023/09/11 03:32:06;;;;;;;7.30;4.40;;;15.90;99.90;;;;;;5097849;28;20442;-61
2023/09/11 03:34:32;;;;;;;8.20;4.80;;;15.90;99.90;;;;;;5096039;28;20185;-61
2023/09/11 03:36:57;;;;;;;8.07;4.57;;;15.90;99.90;;;;;;5091524;28;21142;-61
2023/09/11 03:39:23;;;;;;;9.23;5.10;;;16.00;99.90;;;;;;5095697;28;20601;-61
2023/09/11 03:41:50;;;;;;;7.73;5.30;;;16.00;99.90;;;;;;5092324;28;20279;-61
2023/09/11 03:44:15;;;;;;;11.30;5.40;;;16.00;99.90;;;;;;5084749;28;20209;-61
2023/09/11 03:46:41;;;;;;;10.77;6.50;;;15.90;99.90;;;;;;5101304;28;20501;-61
2023/09/11 03:49:07;;;;;;;12.23;4.90;;;16.00;99.90;;;;;;5104946;28;20225;-61
2023/09/11 03:51:32;;;;;;;14.17;5.37;;;16.00;99.90;;;;;;5112442;28;20612;-61
2023/09/11 03:53:58;;;;;;;13.60;6.80;;;16.00;99.90;;;;;;5099918;28;20180;-61
2023/09/11 03:56:24;;;;;;;11.57;4.77;;;16.00;99.90;;;;;;5081647;28;20649;-60
2023/09/11 03:58:50;;;;;;;11.37;5.93;;;16.00;99.90;;;;;;5103981;28;20451;-61
2023/09/11 04:01:16;;;;;;;8.30;5.47;;;15.90;99.90;;;;;;5111950;28;20445;-61
2023/09/11 04:03:42;;;;;;;8.37;5.13;;;15.90;99.90;;;;;;5100022;28;20458;-61
2023/09/11 04:06:08;;;;;;;19.23;5.67;;;15.90;99.90;;;;;;5096702;28;20184;-61
2023/09/11 04:08:34;;;;;;;13.70;6.00;;;16.00;99.90;;;;;;5097092;28;20596;-61
2023/09/11 04:11:01;;;;;;;7.03;4.30;;;16.00;99.90;;;;;;5091257;28;20265;-61
2023/09/11 04:13:26;;;;;;;18.03;6.17;;;15.90;99.90;;;;;;5091683;28;20601;-61
2023/09/11 04:15:52;;;;;;;10.80;6.10;;;15.90;99.90;;;;;;5096586;28;20434;-61
2023/09/11 04:18:18;;;;;;;11.40;5.20;;;15.90;99.90;;;;;;5100783;28;20195;-61
2023/09/11 04:20:44;;;;;;;8.03;5.17;;;15.90;99.90;;;;;;5085638;28;20184;-61
2023/09/11 04:23:10;;;;;;;13.03;5.47;;;15.90;99.90;;;;;;5104897;28;20298;-61
2023/09/11 04:25:35;;;;;;;7.70;5.20;;;15.90;99.90;;;;;;5086054;28;20566;-61
2023/09/11 04:28:01;;;;;;;7.77;4.80;;;15.90;99.90;;;;;;5084822;28;20181;-61
2023/09/11 04:30:26;;;;;;;11.97;5.33;;;15.90;99.90;;;;;;5089405;28;20205;-61
2023/09/11 04:32:52;;;;;;;15.43;6.13;;;15.90;99.90;;;;;;5092420;28;20195;-61
2023/09/11 04:35:18;;;;;;;10.13;6.10;;;15.80;99.90;;;;;;5084046;28;20330;-61
2023/09/11 04:37:44;;;;;;;13.60;7.20;;;15.80;99.90;;;;;;5085192;28;20532;-61
2023/09/11 04:40:10;;;;;;;7.03;4.43;;;15.90;99.90;;;;;;5089288;28;20922;-61
2023/09/11 04:42:36;;;;;;;10.40;5.90;;;15.90;99.90;;;;;;5091386;28;20561;-61
2023/09/11 04:45:06;;;;;;;11.63;6.20;;;16.00;99.90;;;;;;5091235;28;20487;-61
2023/09/11 04:47:31;;;;;;;9.47;4.97;;;15.90;99.90;;;;;;5090477;28;20427;-61
2023/09/11 04:49:58;;;;;;;11.60;5.67;;;16.00;99.90;;;;;;5091348;28;20430;-61
2023/09/11 04:52:24;;;;;;;10.23;6.00;;;15.90;99.90;;;;;;5091173;28;20183;-61
2023/09/11 04:54:49;;;;;;;15.10;6.30;;;15.90;99.90;;;;;;5077047;28;20772;-61
2023/09/11 04:57:15;;;;;;;11.67;6.17;;;15.90;99.90;;;;;;5090649;28;20446;-61
2023/09/11 04:59:42;;;;;;;11.63;5.30;;;15.90;99.90;;;;;;5091019;28;20199;-61
2023/09/11 05:02:09;;;;;;;8.10;5.33;;;15.90;99.90;;;;;;5090135;28;20203;-61
2023/09/11 05:04:35;;;;;;;8.37;5.50;;;15.90;99.90;;;;;;5090674;28;20498;-61
2023/09/11 05:07:00;;;;;;;13.47;6.20;;;15.90;99.90;;;;;;5090608;28;20431;-61
2023/09/11 05:09:26;;;;;;;13.77;6.70;;;16.00;99.90;;;;;;5090607;28;20188;-61
2023/09/11 05:11:51;;;;;;;9.00;5.20;;;15.90;99.90;;;;;;5090754;28;20661;-61
2023/09/11 05:14:17;;;;;;;8.30;5.37;;;15.90;99.90;;;;;;5090024;28;20199;-61
2023/09/11 05:16:43;;;;;;;13.40;6.37;;;15.80;99.90;;;;;;5090394;28;20242;-61
2023/09/11 05:19:08;;;;;;;10.13;5.80;;;15.70;99.90;;;;;;5083715;28;20195;-61
2023/09/11 05:21:36;;;;;;;7.23;5.30;;;15.70;99.90;;;;;;5089377;28;20667;-61
2023/09/11 05:24:03;;;;;;;8.93;5.00;;;15.70;99.90;;;;;;5076977;28;20295;-62
2023/09/11 05:26:29;;;;;;;11.40;5.93;;;15.70;99.90;;;;;;5090170;28;20895;-62
2023/09/11 05:28:54;;;;;;;9.07;5.23;;;15.80;99.90;;;;;;5083747;28;20406;-62
2023/09/11 05:31:20;;;;;;;9.10;4.87;;;15.80;99.90;;;;;;5090356;28;20199;-62
2023/09/11 05:33:45;;;;;;;10.37;5.40;;;15.90;99.90;;;;;;5076384;28;20203;-62
2023/09/11 05:36:11;;;;;;;12.03;5.50;;;15.90;99.90;;;;;;5083468;28;20640;-62
2023/09/11 05:38:37;;;;;;;12.63;5.90;;;15.90;99.90;;;;;;5087749;28;20188;-62
2023/09/11 05:41:03;;;;;;;17.67;6.07;;;15.90;99.90;;;;;;5084972;28;20754;-62
2023/09/11 05:43:28;;;;;;;9.77;6.20;;;16.00;99.90;;;;;;5091230;28;20732;-62
2023/09/11 05:45:55;;;;;;;10.60;5.07;;;16.00;99.90;;;;;;5090071;28;20176;-62
2023/09/11 05:48:20;;;;;;;13.33;5.77;;;16.00;99.90;;;;;;5090258;28;20640;-62
2023/09/11 05:50:46;;;;;;;10.10;5.80;;;16.10;99.90;;;;;;5090806;28;20415;-62
2023/09/11 05:53:11;;;;;;;9.93;5.90;;;16.20;99.90;;;;;;5091239;28;20203;-62
2023/09/11 05:55:38;;;;;;;12.77;5.50;;;16.30;99.90;;;;;;5090376;28;20892;-62
2023/09/11 05:58:04;;;;;;;7.60;4.40;;;16.40;99.90;;;;;;5078023;28;20644;-62
2023/09/11 06:00:29;;;;;;;17.40;5.57;;;16.50;99.90;;;;;;5091087;28;20458;-62
2023/09/11 06:02:55;;;;;;;8.20;5.13;;;16.60;99.90;;;;;;5076145;28;20663;-62
2023/09/11 06:05:21;;;;;;;19.40;6.43;;;16.60;99.90;;;;;;5090642;28;20263;-62
2023/09/11 06:07:47;;;;;;;9.17;5.37;;;16.70;99.90;;;;;;5077385;28;20275;-62
2023/09/11 06:10:13;;;;;;;11.73;7.00;;;16.80;99.90;;;;;;5091315;28;20824;-62
2023/09/11 06:12:39;;;;;;;10.77;5.60;;;17.00;99.90;;;;;;5090728;28;20731;-62
2023/09/11 06:15:05;;;;;;;10.97;6.27;;;17.00;99.90;;;;;;5090901;28;20418;-62
2023/09/11 06:17:35;;;;;;;9.70;5.80;;;17.20;99.90;;;;;;5081179;28;20200;-62
2023/09/11 06:20:00;;;;;;;8.53;5.43;;;17.30;99.90;;;;;;5094760;28;20422;-62
2023/09/11 06:22:26;;;;;;;8.27;5.13;;;17.50;99.90;;;;;;5086886;28;20997;-62
2023/09/11 06:24:52;;;;;;;9.77;5.50;;;17.80;99.90;;;;;;5087703;28;20219;-62
2023/09/11 06:27:19;;;;;;;7.50;4.43;;;18.00;99.90;;;;;;5093536;28;20777;-62
2023/09/11 06:29:44;;;;;;;9.60;5.90;;;18.20;99.90;;;;;;5088157;28;20187;-62
2023/09/11 06:32:12;;;;;;;11.53;5.63;;;18.30;99.90;;;;;;5091099;28;20427;-62
2023/09/11 06:34:38;;;;;;;11.30;5.73;;;18.30;99.90;;;;;;5087167;28;20728;-62
2023/09/11 06:37:06;;;;;;;12.40;5.30;;;18.30;99.90;;;;;;5093822;28;20422;-62
2023/09/11 06:39:31;;;;;;;10.87;5.50;;;18.40;99.90;;;;;;5092577;28;20799;-62
2023/09/11 06:41:57;;;;;;;7.20;5.03;;;18.40;99.90;;;;;;5093972;28;20426;-62
2023/09/11 06:44:23;;;;;;;10.73;5.40;;;18.50;99.90;;;;;;5085967;28;20244;-62
2023/09/11 06:46:48;;;;;;;11.17;4.63;;;18.50;99.90;;;;;;5093716;28;20184;-62
2023/09/11 06:49:14;;;;;;;10.30;5.60;;;18.60;99.90;;;;;;5093850;28;20183;-62
2023/09/11 06:51:39;;;;;;;9.77;5.00;;;18.70;99.90;;;;;;5093826;28;21012;-62
2023/09/11 06:54:09;;;;;;;7.17;5.07;;;18.80;99.90;;;;;;5094045;28;20195;-62
2023/09/11 06:56:34;;;;;;;8.97;5.47;;;18.90;99.90;;;;;;5089314;28;20656;-62
2023/09/11 06:59:00;;;;;;;11.23;5.17;;;19.10;99.90;;;;;;5094174;28;20912;-63
2023/09/11 07:01:25;;;;;;;14.17;4.77;;;19.30;99.90;;;;;;5093459;28;20196;-64
2023/09/11 07:03:51;;;;;;;11.83;5.20;;;19.50;99.90;;;;;;5093686;28;20645;-64
2023/09/11 07:06:17;;;;;;;8.60;5.57;;;19.70;99.90;;;;;;5087392;28;20180;-67
2023/09/11 07:08:42;;;;;;;9.80;4.73;;;19.90;99.90;;;;;;5082406;28;20235;-66
2023/09/11 07:11:08;;;;;;;9.60;4.40;;;20.30;99.90;;;;;;5086301;28;20184;-66
2023/09/11 07:13:33;;;;;;;11.20;4.57;;;20.60;99.90;;;;;;5091440;28;20188;-67
2023/09/11 07:16:00;;;;;;;11.73;5.10;;;20.90;99.90;;;;;;5089141;28;20261;-66
2023/09/11 07:18:26;;;;;;;10.60;4.50;;;21.20;99.90;;;;;;5090867;28;20188;-67
2023/09/11 07:20:53;;;;;;;12.83;4.57;;;21.70;99.90;;;;;;5079830;28;20417;-67
2023/09/11 07:23:20;;;;;;;10.40;4.53;;;22.50;99.90;;;;;;5091545;28;20453;-67
2023/09/11 07:25:46;;;;;;;9.07;3.80;;;23.50;99.90;;;;;;5091223;28;20418;-67
2023/09/11 07:28:15;;;;;;;11.60;5.13;;;24.60;99.90;;;;;;5083515;28;20414;-67
2023/09/11 07:30:42;;;;;;;9.03;3.90;;;25.90;99.90;;;;;;5091608;28;20547;-67
2023/09/11 07:33:09;;;;;;;12.57;4.43;;;26.80;99.90;;;;;;5090745;28;20430;-67
2023/09/11 07:35:34;;;;;;;6.00;3.00;;;27.60;98.80;;;;;;5089560;28;20195;-67
2023/09/11 07:38:00;;;;;;;6.28;4.00;;;28.30;96.60;;;;;;5083547;28;20227;-67
2023/09/11 07:40:26;;;;;;;10.80;4.35;;;28.60;95.70;;;;;;5089281;28;20203;-67
2023/09/11 07:42:54;;;;;;;6.97;4.43;;;28.90;95.80;;;;;;5088739;28;20195;-67
2023/09/11 07:45:20;;;;;;;11.98;3.38;;;29.30;95.30;;;;;;5090964;28;20172;-67
2023/09/11 07:47:46;;;;;;;7.20;3.97;;;29.40;94.30;;;;;;5090813;28;20186;-68
2023/09/11 07:50:11;;;;;;;13.88;3.47;;;29.60;94.40;;;;;;5091565;28;20612;-67
2023/09/11 07:52:37;;;;;;;6.05;3.33;;;29.40;94.40;;;;;;5091212;28;20686;-67
2023/09/11 07:55:03;;;;;;;9.23;4.72;;;29.50;93.90;;;;;;5085558;28;20668;-67
2023/09/11 07:57:30;;;;;;;6.70;3.47;;;29.60;91.80;;;;;;5087246;28;20184;-67
2023/09/11 07:59:56;;;;;;;11.23;3.72;;;29.50;92.10;;;;;;5091623;28;20233;-67
2023/09/11 08:02:22;;;;;;;7.95;3.80;;;29.80;91.80;;;;;;5090182;28;20191;-67
2023/09/11 08:04:48;;;;;;;15.00;3.83;;;30.00;91.70;;;;;;5085865;28;20204;-67
2023/09/11 08:07:13;;;;;;;23.42;4.40;;;30.40;90.20;;;;;;5089610;28;20562;-67
2023/09/11 08:09:39;;;;;;;10.48;4.88;;;30.40;87.00;;;;;;5081211;28;20632;-67
2023/09/11 08:12:04;;;;;;;8.38;3.97;;;30.00;89.50;;;;;;5089717;28;20180;-66
2023/09/11 08:14:30;;;;;;;22.13;4.50;;;30.30;87.60;;;;;;5090507;28;20191;-66
2023/09/11 08:16:56;;;;;;;4.75;2.92;;;30.30;89.00;;;;;;5088486;28;20193;-66
2023/09/11 08:19:21;;;;;;;5.85;3.10;;;30.50;88.60;;;;;;5082357;28;20176;-67
2023/09/11 08:21:47;;;;;;;11.35;4.20;;;30.00;88.90;;;;;;5090539;28;20708;-67
2023/09/11 08:24:13;;;;;;;10.43;3.85;;;29.90;87.90;;;;;;5089898;28;20533;-67
2023/09/11 08:26:38;;;;;;;6.88;3.42;;;29.70;88.70;;;;;;5088908;28;20184;-66
2023/09/11 08:29:04;;;;;;;6.78;3.80;;;29.40;89.60;;;;;;5084969;28;20175;-66
2023/09/11 08:31:30;;;;;;;5.40;3.55;;;29.60;87.70;;;;;;5090353;28;20211;-66
2023/09/11 08:33:55;;;;;;;6.28;3.58;;;29.30;88.80;;;;;;5090257;28;20793;-66
2023/09/11 08:36:22;;;;;;;9.25;3.90;;;29.40;90.00;;;;;;5090595;28;20229;-66
2023/09/11 08:38:47;;;;;;;6.88;3.33;;;29.80;90.70;;;;;;5090404;28;20187;-66
2023/09/11 08:41:14;;;;;;;6.85;3.88;;;30.50;90.70;;;;;;5086191;28;20188;-66
2023/09/11 08:43:39;;;;;;;8.07;4.40;;;30.80;89.90;;;;;;5085264;28;20218;-66
2023/09/11 08:46:07;;;;;;;10.85;3.92;;;30.90;88.20;;;;;;5086368;28;20180;-66
2023/09/11 08:48:36;;;;;;;5.50;3.40;;;30.80;88.80;;;;;;5079075;28;20287;-67
2023/09/11 08:51:09;;;;;;;6.80;3.83;;;30.70;90.30;;;;;;5078359;28;20173;-66
2023/09/11 08:53:38;;;;;;;7.22;4.25;;;31.00;87.70;;;;;;5085176;28;20169;-67
2023/09/11 08:56:05;;;;;;;7.30;3.70;;;30.80;87.40;;;;;;5089627;28;20786;-67
2023/09/11 08:58:32;;;;;;;8.07;3.28;;;30.40;90.20;;;;;;5090424;28;20243;-67
2023/09/11 09:01:00;;;;;;;10.13;4.00;;;30.30;89.10;;;;;;5089366;28;20203;-67
2023/09/11 09:03:27;;;;;;;9.50;4.55;;;30.10;88.80;;;;;;5079737;28;20202;-67
2023/09/11 09:05:54;;;;;;;5.00;3.17;;;30.20;89.20;;;;;;5089622;28;20192;-66
2023/09/11 09:08:21;;;;;;;8.43;3.88;;;30.40;84.40;;;;;;5085588;28;20201;-66
2023/09/11 09:10:48;;;;;;;6.57;3.90;;;29.60;85.70;;;;;;5089964;28;20501;-67
2023/09/11 09:13:13;;;;;;;5.55;3.83;;;29.80;86.80;;;;;;5087690;28;20823;-67
2023/09/11 09:15:41;;;;;;;8.52;3.22;;;30.30;85.70;;;;;;5089327;28;20210;-66
2023/09/11 09:18:08;;;;;;;6.63;3.75;;;30.60;83.90;;;;;;5089587;28;20180;-67
2023/09/11 09:20:34;;;;;;;6.57;3.42;;;30.60;85.00;;;;;;5082788;28;20187;-65
2023/09/11 09:23:01;;;;;;;4.88;3.35;;;30.70;82.90;;;;;;5088182;28;20550;-65
2023/09/11 09:25:28;;;;;;;7.13;4.50;;;31.00;82.10;;;;;;5089151;28;20221;-65
2023/09/11 09:27:56;;;;;;;5.75;3.92;;;30.70;81.60;;;;;;5082973;28;20172;-65
2023/09/11 09:30:30;;;;;;;8.88;4.07;;;30.70;82.90;;;;;;5089983;28;20179;-65
2023/09/11 09:32:57;;;;;;;7.00;3.78;;;30.70;85.80;;;;;;5086836;28;20513;-65
2023/09/11 09:35:32;;;;;;;5.18;2.78;;;31.00;85.20;;;;;;5089265;28;20188;-65
2023/09/11 09:38:00;;;;;;;5.68;3.03;;;31.20;83.80;;;;;;5090156;28;20528;-65
2023/09/11 09:40:35;;;;;;;5.95;4.20;;;31.30;82.70;;;;;;5089485;28;20217;-65
2023/09/11 09:43:03;;;;;;;22.90;3.90;;;31.30;82.80;;;;;;5090018;28;20175;-64
2023/09/11 09:45:29;;;;;;;6.68;4.00;;;31.00;82.70;;;;;;5087810;28;20184;-65
2023/09/11 09:48:16;;;;;;;5.80;2.95;;;30.80;83.30;;;;;;5084603;28;20183;-64
2023/09/11 09:51:02;;;;;;;11.32;4.15;;;30.60;84.60;;;;;;5089145;28;20182;-64
2023/09/11 09:53:35;;;;;;;9.00;4.28;;;30.20;88.10;;;;;;5082175;28;20539;-64
2023/09/11 09:56:04;;;;;;;8.65;4.68;;;30.10;86.40;;;;;;5091165;28;20237;-64
2023/09/11 09:58:40;;;;;;;10.68;4.20;;;29.90;87.40;;;;;;5089192;28;20197;-64
2023/09/11 10:01:17;;;;;;;9.10;3.70;;;29.40;87.70;;;;;;5093126;28;20187;-64
2023/09/11 10:03:53;;;;;;;8.25;4.40;;;29.00;90.80;;;;;;5092978;28;20246;-64
2023/09/11 10:06:26;;;;;;;7.43;4.15;;;28.90;90.80;;;;;;5089531;28;20195;-64
2023/09/11 10:09:07;;;;;;;20.63;4.50;;;28.90;90.70;;;;;;5086743;28;20640;-64
2023/09/11 10:11:34;;;;;;;7.40;4.10;;;28.40;91.20;;;;;;5093312;28;20194;-64
2023/09/11 10:14:01;;;;;;;16.55;4.50;;;28.50;90.40;;;;;;5092987;28;20176;-63
2023/09/11 10:16:28;;;;;;;9.90;3.65;;;28.60;90.10;;;;;;5092660;28;20286;-64
2023/09/11 10:18:56;;;;;;;7.70;4.03;;;28.50;90.00;;;;;;5088202;28;20181;-66
2023/09/11 10:21:22;;;;;;;11.65;3.65;;;28.50;91.30;;;;;;5090267;28;20211;-66
2023/09/11 10:23:47;;;;;;;5.32;3.47;;;28.40;90.20;;;;;;5092608;28;20274;-66
2023/09/11 10:26:23;;;;;;;7.95;4.22;;;28.30;90.80;;;;;;5092677;28;20226;-66
2023/09/11 10:28:52;;;;;;;6.40;3.95;;;28.50;90.60;;;;;;5092373;28;20516;-66
2023/09/11 10:31:24;;;;;;;12.60;5.05;;;28.60;88.80;;;;;;5092254;28;20176;-66
2023/09/11 10:33:54;;;;;;;8.98;3.42;;;28.60;91.00;;;;;;5092528;28;20266;-66
2023/09/11 10:36:23;;;;;;;6.72;3.28;;;28.90;89.10;;;;;;5084044;28;20191;-66
2023/09/11 10:38:52;;;;;;;14.25;3.88;;;29.10;83.90;;;;;;5093011;28;20172;-66
2023/09/11 10:41:18;;;;;;;7.38;4.38;;;29.00;86.60;;;;;;5088122;28;20180;-66
2023/09/11 10:43:48;;;;;;;8.32;3.80;;;29.00;85.50;;;;;;5091941;28;20195;-66
2023/09/11 10:46:17;;;;;;;14.18;3.80;;;28.90;87.80;;;;;;5104325;28;20826;-66
2023/09/11 10:48:43;;;;;;;7.97;3.15;;;28.70;85.10;;;;;;5092582;28;20695;-66
2023/09/11 10:51:09;;;;;;;8.15;3.72;;;28.90;86.30;;;;;;5092404;28;20230;-66
2023/09/11 10:53:35;;;;;;;12.45;2.88;;;29.20;86.70;;;;;;5091260;28;20640;-66
2023/09/11 10:56:02;;;;;;;9.95;3.95;;;29.30;84.50;;;;;;5094723;28;20187;-66
2023/09/11 10:58:28;;;;;;;10.20;3.50;;;29.40;82.40;;;;;;5100558;28;20248;-66
2023/09/11 11:00:55;;;;;;;8.63;3.33;;;29.30;82.00;;;;;;5090845;28;20192;-66
2023/09/11 11:03:34;;;;;;;10.85;3.63;;;29.40;81.20;;;;;;5097613;28;20612;-66
2023/09/11 11:06:00;;;;;;;9.15;3.92;;;29.50;77.30;;;;;;5102348;28;20645;-66
2023/09/11 11:08:30;;;;;;;5.15;2.35;;;29.60;76.80;;;;;;5083334;28;20184;-66
2023/09/11 11:10:57;;;;;;;12.95;3.85;;;29.60;79.40;;;;;;5091950;28;20197;-66
2023/09/11 11:13:23;;;;;;;6.88;3.30;;;29.80;78.80;;;;;;5091900;28;20286;-66
2023/09/11 11:16:08;;;;;;;11.15;3.53;;;29.50;79.40;;;;;;5091356;28;20990;-66
2023/09/11 11:18:35;;;;;;;11.02;3.60;;;29.60;81.00;;;;;;5089822;28;20267;-66
2023/09/11 11:21:00;;;;;;;4.85;3.15;;;29.60;80.10;;;;;;5085842;28;20187;-66
2023/09/11 11:23:30;;;;;;;9.18;3.67;;;29.80;80.10;;;;;;5083583;28;20204;-66
2023/09/11 11:26:04;;;;;;;7.82;3.10;;;29.80;76.90;;;;;;5077675;28;20184;-66
2023/09/11 11:28:41;;;;;;;8.13;2.78;;;29.90;78.00;;;;;;5089923;28;20167;-66
2023/09/11 11:31:08;;;;;;;18.75;3.45;;;30.00;76.30;;;;;;5086123;28;20186;-66
2023/09/11 11:33:36;;;;;;;21.70;3.95;;;30.20;77.40;;;;;;5091395;28;20608;-66
2023/09/11 11:36:05;;;;;;;14.32;3.55;;;30.30;73.20;;;;;;5091414;28;20220;-66
2023/09/11 11:38:30;;;;;;;7.95;3.03;;;30.30;73.70;;;;;;5092085;28;20280;-66
2023/09/11 11:40:56;;;;;;;6.55;3.33;;;30.40;74.80;;;;;;5091232;28;20692;-66
2023/09/11 11:43:22;;;;;;;17.77;3.28;;;30.40;74.00;;;;;;5091512;28;20827;-66
2023/09/11 11:45:48;;;;;;;14.05;3.58;;;30.30;72.30;;;;;;5091321;28;20180;-66
2023/09/11 11:48:15;;;;;;;7.70;3.22;;;30.30;72.10;;;;;;5089691;28;20192;-66
2023/09/11 11:50:45;;;;;;;18.92;4.22;;;30.10;73.90;;;;;;5091130;28;20176;-66
2023/09/11 11:53:20;;;;;;;9.90;4.10;;;29.80;74.30;;;;;;5090690;28;20192;-66
2023/09/11 11:55:46;;;;;;;12.05;3.30;;;30.00;76.00;;;;;;5090530;28;20211;-66
2023/09/11 11:58:13;;;;;;;9.60;3.10;;;30.30;74.80;;;;;;5090754;28;20671;-66
2023/09/11 12:00:59;;;;;;;21.63;3.30;;;30.50;72.80;;;;;;5090084;28;20188;-66
2023/09/11 12:03:33;;;;;;;7.72;3.25;;;30.80;70.90;;;;;;5089547;28;20269;-66
2023/09/11 12:06:01;;;;;;;12.50;4.78;;;31.10;69.60;;;;;;5090293;28;20733;-66
2023/09/11 12:08:27;;;;;;;14.82;3.05;;;31.00;70.80;;;;;;5090471;28;20184;-66
2023/09/11 12:10:53;;;;;;;10.60;3.42;;;30.90;70.10;;;;;;5090275;28;20187;-66
2023/09/11 12:13:24;;;;;;;7.47;3.40;;;30.70;70.50;;;;;;5090292;28;20183;-66
2023/09/11 12:15:53;;;;;;;10.73;3.63;;;30.80;71.30;;;;;;5084928;28;20294;-66
2023/09/11 12:18:21;;;;;;;7.38;3.65;;;30.80;74.90;;;;;;5080400;28;20193;-62
2023/09/11 12:21:02;;;;;;;14.88;3.83;;;31.00;72.10;;;;;;5086422;28;20187;-62
2023/09/11 12:23:28;;;;;;;16.20;3.40;;;31.00;70.80;;;;;;5084989;28;20269;-62
2023/09/11 12:25:54;;;;;;;10.50;3.45;;;30.90;71.80;;;;;;5091354;28;20640;-62
2023/09/11 12:28:22;;;;;;;6.72;3.67;;;31.00;70.50;;;;;;5081424;28;20168;-62
2023/09/11 12:30:48;;;;;;;5.80;3.03;;;31.00;70.60;;;;;;5086324;28;20171;-61
2023/09/11 12:33:16;;;;;;;11.38;3.95;;;31.10;71.40;;;;;;5096468;28;20182;-61
2023/09/11 12:35:43;;;;;;;6.13;2.67;;;30.90;76.00;;;;;;5087915;28;20180;-62
2023/09/11 12:38:12;;;;;;;5.10;3.30;;;31.00;72.40;;;;;;5090459;28;20206;-61
2023/09/11 12:40:39;;;;;;;13.50;3.40;;;31.00;72.20;;;;;;5092440;28;20183;-61
2023/09/11 12:43:05;;;;;;;7.43;3.05;;;31.30;71.10;;;;;;5091151;28;20187;-61